Weather at Zagorje ob Savi Airfield

Public forecast

Using degrees Celsius for public forecast. Weather courtesy of forecast.io.

Closest aviation weather report (METAR) to Zagorje ob Savi Airfield

Closest report is Ljubljana Jože Pučnik Airport, 23.0 nm (42.6 km) WNW.

2024/05/22 20:30 (retrieved 30 minutes ago)

LJLJ 222030Z 27006KT 9999 FEW007 BKN110 14/12 Q1014 NOSIG

Closest aviation forecast (TAF) to Zagorje ob Savi Airfield

Closest forecast is Ljubljana Jože Pučnik Airport, 23.0 nm (42.6 km) WNW.

2024/05/22 18:06 (retrieved 3 hours ago)

TAF LJLJ 221700Z 2218/2318 VRB02KT 9999 FEW040 PROB30 TEMPO 2218/2221 SHRA FEW035TCU PROB30 TEMPO 2302/2306 0500 FG VV002 TEMPO 2309/2318 SHRA FEW035TCU SCT050 PROB30 TEMPO 2310/2318 5000 TSRA FEW035CB BKN050